| Date | Time | Temp. (oF) | Dew Point (oF) | Rel. Hum. (%) | Press. (in.) | Wind Dir. | Wind Speed (mph) | Hourly Rainfall (in.) |
|
|---|---|---|---|---|---|---|---|---|---|
| 1 | 09/28 | 00:00 | 70 | 69 | 98 | 29.81 | SSE | 1 | 0.00 |
| 2 | 09/27 | 23:00 | 71 | 69 | 96 | 29.83 | SE | 1 | 0.00 |
| 3 | 09/27 | 22:00 | 71 | 70 | 97 | 29.85 | ESE | 3 | 0.00 |
| 4 | 09/27 | 21:00 | 72 | 71 | 98 | 29.85 | SSE | 3 | 0.00 |
| 5 | 09/27 | 20:00 | 73 | 70 | 91 | 29.85 | SSE | 2 | 0.00 |
| 6 | 09/27 | 19:00 | 74 | 70 | 88 | 29.82 | SE | 5 | 0.00 |
| 7 | 09/27 | 18:00 | 76 | 70 | 84 | 29.78 | S | 3 | 0.00 |
| 8 | 09/27 | 17:00 | 80 | 70 | 72 | 29.77 | SE | 8 | 0.00 |
| 9 | 09/27 | 16:00 | 80 | 70 | 72 | 29.81 | S | 9 | 0.00 |
| 10 | 09/27 | 15:00 | 79 | 68 | 70 | 29.85 | SSE | 7 | 0.00 |
| 11 | 09/27 | 14:00 | 79 | 70 | 76 | 29.88 | SE | 7 | 0.00 |
| 12 | 09/27 | 13:00 | 77 | 69 | 79 | 29.91 | SSE | 8 | 0.00 |
| 13 | 09/27 | 12:00 | 73 | 69 | 90 | 29.94 | ESE | 6 | 0.00 |
| 14 | 09/27 | 11:00 | 70 | 69 | 100 | 29.95 | E | 4 | 0.00 |
| 15 | 09/27 | 10:00 | 67 | 67 | 100 | 29.97 | E | 4 | 0.00 |
| 16 | 09/27 | 09:00 | 66 | 66 | 100 | 29.96 | ESE | 4 | 0.00 |
| 17 | 09/27 | 08:00 | 65 | 64 | 100 | 29.97 | SSE | 2 | 0.00 |
| 18 | 09/27 | 07:00 | 64 | 63 | 100 | 29.96 | SSE | 2 | 0.00 |
| 19 | 09/27 | 06:00 | 63 | 63 | 100 | 29.95 | ESE | 2 | 0.00 |
| 20 | 09/27 | 05:00 | 63 | 63 | 100 | 29.95 | E | 2 | 0.00 |
| 21 | 09/27 | 04:00 | 64 | 63 | 100 | 29.97 | SSE | 0 | 0.00 |
| 22 | 09/27 | 03:00 | 65 | 64 | 100 | 29.97 | SE | 5 | 0.00 |
| 23 | 09/27 | 02:00 | 66 | 66 | 100 | 29.99 | E | 2 | 0.00 |
| 24 | 09/27 | 01:00 | 67 | 67 | 100 | 29.98 | SE | 2 | 0.00 |